Time;durP1;ratioP1;P1;durP2;ratioP2;P2;SDS_P1;SDS_P2;PMS_P1;PMS_P2;Temp;Humidity;BMP_temperature;BMP_pressure;BME280_temperature;BME280_humidity;BME280_pressure;Samples;Min_cycle;Max_cycle;Signal;HPM_P1;HPM_P2
2023/06/22 00:01:55;;;;;;;0.10;0.10;;;;;;;;;;5067957;28;20235;-78
2023/06/22 00:04:21;;;;;;;0.00;0.00;;;;;;;;;;5066653;28;20235;-77
2023/06/22 00:06:48;;;;;;;0.00;0.00;;;;;;;;;;5067588;28;20255;-78
2023/06/22 00:09:14;;;;;;;0.00;0.00;;;;;;;;;;5067015;28;20231;-78
2023/06/22 00:11:40;;;;;;;0.00;0.00;;;;;;;;;;5066436;28;20255;-78
2023/06/22 00:14:07;;;;;;;0.05;0.05;;;;;;;;;;5068167;28;20271;-78
2023/06/22 00:16:34;;;;;;;0.00;0.00;;;;;;;;;;5065551;28;20269;-78
2023/06/22 00:19:02;;;;;;;0.00;0.00;;;;;;;;;;5068625;28;20274;-78
2023/06/22 00:21:28;;;;;;;0.00;0.00;;;;;;;;;;5064767;28;20310;-78
2023/06/22 00:23:55;;;;;;;0.00;0.00;;;;;;;;;;5069161;28;20275;-78
2023/06/22 00:26:21;;;;;;;0.00;0.00;;;;;;;;;;5063740;28;20251;-78
2023/06/22 00:28:48;;;;;;;0.00;0.00;;;;;;;;;;5070425;28;20521;-78
2023/06/22 00:31:14;;;;;;;0.03;0.03;;;;;;;;;;5062922;28;20273;-75
2023/06/22 00:33:42;;;;;;;0.77;0.77;;;;;;;;;;5071087;28;20439;-78
2023/06/22 00:36:08;;;;;;;0.00;0.00;;;;;;;;;;5061951;28;20577;-78
2023/06/22 00:38:38;;;;;;;0.00;0.00;;;;;;;;;;5071724;28;20460;-78
2023/06/22 00:41:05;;;;;;;0.00;0.00;;;;;;;;;;5061350;28;20238;-78
2023/06/22 00:43:31;;;;;;;0.00;0.00;;;;;;;;;;5070964;28;20290;-79
2023/06/22 00:45:57;;;;;;;0.00;0.00;;;;;;;;;;5060303;28;20266;-78
2023/06/22 00:48:24;;;;;;;0.00;0.00;;;;;;;;;;5072787;28;20193;-77
2023/06/22 00:50:53;;;;;;;0.00;0.00;;;;;;;;;;5059346;28;20255;-78
2023/06/22 00:53:20;;;;;;;0.00;0.00;;;;;;;;;;5073216;28;20201;-78
2023/06/22 00:55:47;;;;;;;0.05;0.05;;;;;;;;;;5058698;28;20303;-78
2023/06/22 00:58:14;;;;;;;0.10;0.10;;;;;;;;;;5073928;28;20200;-78
2023/06/22 01:00:41;;;;;;;0.00;0.00;;;;;;;;;;5057883;28;20515;-78
2023/06/22 01:03:08;;;;;;;0.00;0.00;;;;;;;;;;5074704;28;20204;-78
2023/06/22 01:05:35;;;;;;;0.00;0.00;;;;;;;;;;5057296;28;20239;-78
2023/06/22 01:08:09;;;;;;;0.00;0.00;;;;;;;;;;5075742;28;20375;-78
2023/06/22 01:10:40;;;;;;;0.00;0.00;;;;;;;;;;5057170;28;20265;-78
2023/06/22 01:13:08;;;;;;;0.00;0.00;;;;;;;;;;5074765;28;20389;-78
2023/06/22 01:15:38;;;;;;;0.00;0.00;;;;;;;;;;5057043;28;20298;-78
2023/06/22 01:18:05;;;;;;;0.03;0.03;;;;;;;;;;5074931;28;20196;-78
2023/06/22 01:20:32;;;;;;;0.00;0.00;;;;;;;;;;5056490;28;20254;-78
2023/06/22 01:23:04;;;;;;;0.00;0.00;;;;;;;;;;5076011;28;20192;-78
2023/06/22 01:25:37;;;;;;;0.00;0.00;;;;;;;;;;5056390;28;20582;-78
2023/06/22 01:28:06;;;;;;;0.00;0.00;;;;;;;;;;5075061;28;20264;-78
2023/06/22 01:30:34;;;;;;;0.00;0.00;;;;;;;;;;5056357;28;20254;-78
2023/06/22 01:33:02;;;;;;;0.00;0.00;;;;;;;;;;5075363;28;20223;-78
2023/06/22 01:35:29;;;;;;;0.00;0.00;;;;;;;;;;5056153;28;20246;-78
2023/06/22 01:37:56;;;;;;;0.00;0.00;;;;;;;;;;5075934;28;20500;-77
2023/06/22 01:40:22;;;;;;;0.10;0.10;;;;;;;;;;5055252;28;20249;-78
2023/06/22 01:42:49;;;;;;;0.30;0.30;;;;;;;;;;5076753;28;20256;-78
2023/06/22 01:45:16;;;;;;;0.00;0.00;;;;;;;;;;5054118;28;20275;-78
2023/06/22 01:47:44;;;;;;;0.08;0.08;;;;;;;;;;5077599;28;20279;-77
2023/06/22 01:50:10;;;;;;;0.00;0.00;;;;;;;;;;5053778;28;20211;-78
2023/06/22 01:52:37;;;;;;;0.00;0.00;;;;;;;;;;5078338;28;20420;-77
2023/06/22 01:55:04;;;;;;;0.08;0.08;;;;;;;;;;5066315;28;20367;-77
2023/06/22 01:57:31;;;;;;;0.00;0.00;;;;;;;;;;5072777;28;20307;-78
2023/06/22 02:00:00;;;;;;;0.00;0.00;;;;;;;;;;5067223;28;20295;-78
2023/06/22 02:02:30;;;;;;;0.00;0.00;;;;;;;;;;5072624;28;20473;-78
2023/06/22 02:05:00;;;;;;;0.00;0.00;;;;;;;;;;5066873;28;20227;-78
2023/06/22 02:07:29;;;;;;;0.00;0.00;;;;;;;;;;5072624;28;20261;-78
2023/06/22 02:09:57;;;;;;;0.40;0.40;;;;;;;;;;5066717;28;20243;-77
2023/06/22 02:12:26;;;;;;;4.13;3.92;;;;;;;;;;5072376;28;20299;-78
2023/06/22 02:14:53;;;;;;;0.08;0.08;;;;;;;;;;5066960;28;20204;-78
2023/06/22 02:17:19;;;;;;;7.90;1.95;;;;;;;;;;5072263;28;20255;-78
2023/06/22 02:19:46;;;;;;;0.00;0.00;;;;;;;;;;5066927;28;20455;-78
2023/06/22 02:22:14;;;;;;;0.00;0.00;;;;;;;;;;5072223;28;20251;-78
2023/06/22 02:24:41;;;;;;;0.00;0.00;;;;;;;;;;5066393;28;20204;-78
2023/06/22 02:27:07;;;;;;;0.00;0.00;;;;;;;;;;5072176;28;20457;-78
2023/06/22 02:29:34;;;;;;;0.00;0.00;;;;;;;;;;5066413;28;20204;-78
2023/06/22 02:32:00;;;;;;;0.00;0.00;;;;;;;;;;5070792;28;20313;-78
2023/06/22 02:34:27;;;;;;;0.00;0.00;;;;;;;;;;5067449;28;20242;-78
2023/06/22 02:36:53;;;;;;;0.00;0.00;;;;;;;;;;5070042;28;20239;-78
2023/06/22 02:39:22;;;;;;;0.00;0.00;;;;;;;;;;5067942;28;20231;-78
2023/06/22 02:41:48;;;;;;;0.10;0.10;;;;;;;;;;5069426;28;20235;-77
2023/06/22 02:44:15;;;;;;;0.10;0.10;;;;;;;;;;5068458;28;20207;-78
2023/06/22 02:46:41;;;;;;;0.00;0.00;;;;;;;;;;5068133;28;20250;-78
2023/06/22 02:49:08;;;;;;;0.00;0.00;;;;;;;;;;5069548;28;20449;-78
2023/06/22 02:51:35;;;;;;;0.00;0.00;;;;;;;;;;5067292;28;20262;-78
2023/06/22 02:54:01;;;;;;;0.10;0.10;;;;;;;;;;5069976;28;20211;-78
2023/06/22 02:56:30;;;;;;;0.00;0.00;;;;;;;;;;5066428;28;20583;-78
2023/06/22 02:59:00;;;;;;;0.00;0.00;;;;;;;;;;5070880;28;20210;-78
2023/06/22 03:01:27;;;;;;;0.00;0.00;;;;;;;;;;5066077;28;20555;-78
2023/06/22 03:03:53;;;;;;;0.00;0.00;;;;;;;;;;5070929;28;20227;-77
2023/06/22 03:06:22;;;;;;;0.00;0.00;;;;;;;;;;5064091;28;20493;-78
2023/06/22 03:08:49;;;;;;;0.00;0.00;;;;;;;;;;5071549;28;20437;-78
2023/06/22 03:11:15;;;;;;;0.00;0.00;;;;;;;;;;5064326;28;20306;-78
2023/06/22 03:13:45;;;;;;;0.00;0.00;;;;;;;;;;5072457;28;20242;-78
2023/06/22 03:16:11;;;;;;;0.00;0.00;;;;;;;;;;5063911;28;20239;-78
2023/06/22 03:18:38;;;;;;;0.00;0.00;;;;;;;;;;5072609;28;20232;-79
2023/06/22 03:21:05;;;;;;;0.00;0.00;;;;;;;;;;5062802;28;20239;-78
2023/06/22 03:23:31;;;;;;;0.00;0.00;;;;;;;;;;5073425;28;20270;-78
2023/06/22 03:25:58;;;;;;;0.00;0.00;;;;;;;;;;5061557;28;20250;-78
2023/06/22 03:28:24;;;;;;;0.00;0.00;;;;;;;;;;5074612;28;20207;-78
2023/06/22 03:30:52;;;;;;;0.00;0.00;;;;;;;;;;5060567;28;20263;-78
2023/06/22 03:33:18;;;;;;;0.32;0.32;;;;;;;;;;5075260;28;20523;-78
2023/06/22 03:35:44;;;;;;;0.38;0.38;;;;;;;;;;5059909;28;20239;-78
2023/06/22 03:38:11;;;;;;;1.45;1.40;;;;;;;;;;5075836;28;20204;-78
2023/06/22 03:40:37;;;;;;;0.00;0.00;;;;;;;;;;5058729;28;20455;-78
2023/06/22 03:43:03;;;;;;;0.00;0.00;;;;;;;;;;5076973;28;20260;-78
2023/06/22 03:45:30;;;;;;;0.57;0.57;;;;;;;;;;5057694;28;20239;-78
2023/06/22 03:47:58;;;;;;;0.00;0.00;;;;;;;;;;5077419;28;20243;-78
2023/06/22 03:50:24;;;;;;;0.00;0.00;;;;;;;;;;5057127;28;20250;-78
2023/06/22 03:52:52;;;;;;;0.10;0.10;;;;;;;;;;5078096;28;20282;-78
2023/06/22 03:55:20;;;;;;;0.20;0.20;;;;;;;;;;5056016;28;20244;-78
2023/06/22 03:57:46;;;;;;;0.00;0.00;;;;;;;;;;5078556;28;20271;-78
2023/06/22 04:00:15;;;;;;;0.00;0.00;;;;;;;;;;5054786;28;20526;-78
2023/06/22 04:02:41;;;;;;;0.10;0.10;;;;;;;;;;5079310;28;20188;-78
2023/06/22 04:05:09;;;;;;;0.00;0.00;;;;;;;;;;5064654;28;20375;-78
2023/06/22 04:07:36;;;;;;;0.10;0.10;;;;;;;;;;5053378;28;20216;-78
2023/06/22 04:10:03;;;;;;;0.00;0.00;;;;;;;;;;5064529;28;20243;-78
2023/06/22 04:12:29;;;;;;;0.10;0.10;;;;;;;;;;5070064;28;20254;-78
2023/06/22 04:14:56;;;;;;;0.00;0.00;;;;;;;;;;5064504;28;20211;-78
2023/06/22 04:17:24;;;;;;;0.00;0.00;;;;;;;;;;5069913;28;20300;-77
2023/06/22 04:19:51;;;;;;;0.00;0.00;;;;;;;;;;5064277;28;20287;-78
2023/06/22 04:22:18;;;;;;;0.15;0.15;;;;;;;;;;5069993;28;20242;-78
2023/06/22 04:24:45;;;;;;;0.00;0.00;;;;;;;;;;5064156;28;20407;-77
2023/06/22 04:27:11;;;;;;;0.00;0.00;;;;;;;;;;5069852;28;20239;-76
2023/06/22 04:29:48;;;;;;;0.00;0.00;;;;;;;;;;5064483;28;20231;-78
2023/06/22 04:32:15;;;;;;;0.00;0.00;;;;;;;;;;5069766;28;20480;-76
2023/06/22 04:34:41;;;;;;;0.00;0.00;;;;;;;;;;5064040;28;20310;-78
2023/06/22 04:37:07;;;;;;;0.20;0.20;;;;;;;;;;5069608;28;20299;-77
2023/06/22 04:42:36;;;;;;;0.90;0.55;;;;;;;;;;5089349;28;20554;-78
2023/06/22 04:45:24;;;;;;;0.00;0.00;;;;;;;;;;5084732;28;20203;-78
2023/06/22 04:47:52;;;;;;;0.00;0.00;;;;;;;;;;5063589;28;20200;-78
2023/06/22 04:50:21;;;;;;;0.00;0.00;;;;;;;;;;5055257;28;20282;-78
2023/06/22 04:52:47;;;;;;;0.03;0.03;;;;;;;;;;5077415;28;20424;-78
2023/06/22 04:55:18;;;;;;;0.10;0.10;;;;;;;;;;5054557;28;20398;-77
2023/06/22 04:57:48;;;;;;;0.00;0.00;;;;;;;;;;5078180;28;20449;-76
2023/06/22 05:00:17;;;;;;;0.10;0.10;;;;;;;;;;5054633;28;20227;-78
2023/06/22 05:02:44;;;;;;;0.00;0.00;;;;;;;;;;5078253;28;20202;-77
2023/06/22 05:05:13;;;;;;;0.10;0.10;;;;;;;;;;5053729;28;20231;-77
2023/06/22 05:07:42;;;;;;;0.20;0.20;;;;;;;;;;5078412;28;20204;-77
2023/06/22 05:10:09;;;;;;;0.00;0.00;;;;;;;;;;5055914;28;20245;-78
2023/06/22 05:12:36;;;;;;;0.00;0.00;;;;;;;;;;5078751;28;20298;-78
2023/06/22 05:15:04;;;;;;;0.00;0.00;;;;;;;;;;5063639;28;20235;-78
2023/06/22 05:17:30;;;;;;;0.03;0.03;;;;;;;;;;5069050;28;20307;-79
2023/06/22 05:19:57;;;;;;;0.03;0.03;;;;;;;;;;5063250;28;20271;-78
2023/06/22 05:22:23;;;;;;;0.00;0.00;;;;;;;;;;5069095;28;20619;-78
2023/06/22 05:24:50;;;;;;;0.00;0.00;;;;;;;;;;5063415;28;20207;-78
2023/06/22 05:27:16;;;;;;;0.00;0.00;;;;;;;;;;5069043;28;20269;-78
2023/06/22 05:29:43;;;;;;;0.00;0.00;;;;;;;;;;5065785;28;20211;-78
2023/06/22 05:32:11;;;;;;;0.00;0.00;;;;;;;;;;5073234;28;20238;-78
2023/06/22 05:34:37;;;;;;;0.10;0.10;;;;;;;;;;5067300;28;20200;-78
2023/06/22 05:37:04;;;;;;;0.10;0.10;;;;;;;;;;5072597;28;20254;-78
2023/06/22 05:39:31;;;;;;;0.10;0.10;;;;;;;;;;5067614;28;20263;-78
2023/06/22 05:41:57;;;;;;;0.10;0.10;;;;;;;;;;5071584;28;20251;-78
2023/06/22 05:44:23;;;;;;;0.40;0.40;;;;;;;;;;5068607;28;20271;-78
2023/06/22 05:46:50;;;;;;;0.00;0.00;;;;;;;;;;5070439;28;20302;-78
2023/06/22 05:49:18;;;;;;;0.00;0.00;;;;;;;;;;5069376;28;20204;-78
2023/06/22 05:51:44;;;;;;;0.10;0.10;;;;;;;;;;5069734;28;20414;-79
2023/06/22 05:54:13;;;;;;;0.00;0.00;;;;;;;;;;5070219;28;20262;-78
2023/06/22 05:56:39;;;;;;;0.00;0.00;;;;;;;;;;5068889;28;20261;-78
2023/06/22 05:59:06;;;;;;;0.00;0.00;;;;;;;;;;5070531;28;20295;-78
2023/06/22 06:01:35;;;;;;;0.00;0.00;;;;;;;;;;5067910;28;20356;-78
2023/06/22 06:04:01;;;;;;;0.00;0.00;;;;;;;;;;5071416;28;20396;-78
2023/06/22 06:06:29;;;;;;;0.00;0.00;;;;;;;;;;5067391;28;20306;-78
2023/06/22 06:08:56;;;;;;;0.17;0.17;;;;;;;;;;5071953;28;20211;-78
2023/06/22 06:11:22;;;;;;;0.00;0.00;;;;;;;;;;5066509;28;20263;-79
2023/06/22 06:13:48;;;;;;;0.00;0.00;;;;;;;;;;5072631;28;20230;-78
2023/06/22 06:16:15;;;;;;;0.00;0.00;;;;;;;;;;5065503;28;20259;-78
2023/06/22 06:18:41;;;;;;;0.00;0.00;;;;;;;;;;5073352;28;20227;-78
2023/06/22 06:21:08;;;;;;;0.00;0.00;;;;;;;;;;5064224;28;20239;-78
2023/06/22 06:23:35;;;;;;;0.00;0.00;;;;;;;;;;5074068;28;20305;-78
2023/06/22 06:26:02;;;;;;;0.10;0.10;;;;;;;;;;5063356;28;20263;-78
2023/06/22 06:28:28;;;;;;;0.00;0.00;;;;;;;;;;5074968;28;20512;-78
2023/06/22 06:30:55;;;;;;;0.00;0.00;;;;;;;;;;5063598;28;20251;-78
2023/06/22 06:33:21;;;;;;;0.00;0.00;;;;;;;;;;5075867;28;20239;-78
2023/06/22 06:35:47;;;;;;;0.00;0.00;;;;;;;;;;5061531;28;20452;-78
2023/06/22 06:38:14;;;;;;;0.03;0.03;;;;;;;;;;5076853;28;20442;-78
2023/06/22 06:40:41;;;;;;;0.00;0.00;;;;;;;;;;5060429;28;20239;-78
2023/06/22 06:43:08;;;;;;;0.10;0.10;;;;;;;;;;5077634;28;20426;-78
2023/06/22 06:45:34;;;;;;;0.00;0.00;;;;;;;;;;5059732;28;20298;-78
2023/06/22 06:48:01;;;;;;;0.10;0.10;;;;;;;;;;5077996;28;20212;-78
2023/06/22 06:50:27;;;;;;;0.10;0.10;;;;;;;;;;5058399;28;20345;-77
2023/06/22 06:52:53;;;;;;;0.00;0.00;;;;;;;;;;5078878;28;20300;-78
2023/06/22 06:55:20;;;;;;;0.05;0.05;;;;;;;;;;5057210;28;20196;-78
2023/06/22 06:57:49;;;;;;;0.10;0.10;;;;;;;;;;5080094;28;20243;-78
2023/06/22 07:00:16;;;;;;;0.00;0.00;;;;;;;;;;5056449;28;20239;-78
2023/06/22 07:02:43;;;;;;;0.00;0.00;;;;;;;;;;5080053;28;20256;-78
2023/06/22 07:05:11;;;;;;;0.00;0.00;;;;;;;;;;5055929;28;20232;-78
2023/06/22 07:07:37;;;;;;;0.00;0.00;;;;;;;;;;5080987;28;20207;-78
2023/06/22 07:10:04;;;;;;;0.00;0.00;;;;;;;;;;5065968;28;20199;-77
2023/06/22 07:12:30;;;;;;;0.00;0.00;;;;;;;;;;5071303;28;20303;-78
2023/06/22 07:15:03;;;;;;;0.10;0.10;;;;;;;;;;5065589;28;20204;-78
2023/06/22 07:17:29;;;;;;;0.20;0.20;;;;;;;;;;5071301;28;20259;-76
2023/06/22 07:19:56;;;;;;;0.00;0.00;;;;;;;;;;5065731;28;20283;-82
2023/06/22 07:22:22;;;;;;;0.00;0.00;;;;;;;;;;5071301;28;20310;-82
2023/06/22 07:24:49;;;;;;;0.00;0.00;;;;;;;;;;5065529;28;20211;-75
2023/06/22 07:27:18;;;;;;;0.00;0.00;;;;;;;;;;5070788;28;20564;-77
2023/06/22 07:29:45;;;;;;;0.00;0.00;;;;;;;;;;5065670;28;20376;-77
2023/06/22 07:32:12;;;;;;;0.10;0.10;;;;;;;;;;5070998;28;20302;-80
2023/06/22 07:34:39;;;;;;;0.00;0.00;;;;;;;;;;5065451;28;20294;-84
2023/06/22 07:37:05;;;;;;;0.05;0.05;;;;;;;;;;5070447;28;20245;-81
2023/06/22 07:39:32;;;;;;;0.00;0.00;;;;;;;;;;5065514;28;20204;-78
2023/06/22 07:41:58;;;;;;;0.10;0.10;;;;;;;;;;5069365;28;20242;-80
2023/06/22 07:44:25;;;;;;;0.00;0.00;;;;;;;;;;5066575;28;20227;-78
2023/06/22 07:46:51;;;;;;;0.00;0.00;;;;;;;;;;5068107;28;20235;-79
2023/06/22 07:49:19;;;;;;;0.00;0.00;;;;;;;;;;5067542;28;20199;-77
2023/06/22 07:51:45;;;;;;;0.00;0.00;;;;;;;;;;5067106;28;20250;-74
2023/06/22 07:54:12;;;;;;;0.00;0.00;;;;;;;;;;5067704;28;20291;-76
2023/06/22 07:56:38;;;;;;;0.00;0.00;;;;;;;;;;5066623;28;20269;-78
2023/06/22 07:59:04;;;;;;;0.00;0.00;;;;;;;;;;5068630;28;20429;-79
2023/06/22 08:01:31;;;;;;;0.60;0.60;;;;;;;;;;5065545;28;20262;-80
2023/06/22 08:03:57;;;;;;;0.00;0.00;;;;;;;;;;5069492;28;20275;-78
2023/06/22 08:06:25;;;;;;;0.00;0.00;;;;;;;;;;5064384;28;20273;-80
2023/06/22 08:08:58;;;;;;;0.10;0.10;;;;;;;;;;5070949;28;20239;-80
2023/06/22 08:11:25;;;;;;;0.00;0.00;;;;;;;;;;5064790;28;20273;-82
2023/06/22 08:13:52;;;;;;;0.00;0.00;;;;;;;;;;5069824;28;20255;-76
2023/06/22 08:16:18;;;;;;;0.10;0.10;;;;;;;;;;5063407;28;20384;-76
2023/06/22 08:18:44;;;;;;;0.00;0.00;;;;;;;;;;5070579;28;20404;-78
2023/06/22 08:21:11;;;;;;;0.00;0.00;;;;;;;;;;5062568;28;20239;-77
2023/06/22 08:23:39;;;;;;;0.05;0.05;;;;;;;;;;5071758;28;20204;-77
2023/06/22 08:26:05;;;;;;;0.00;0.00;;;;;;;;;;5061795;28;20563;-77
2023/06/22 08:28:32;;;;;;;0.00;0.00;;;;;;;;;;5072586;28;20211;-74
2023/06/22 08:30:58;;;;;;;0.00;0.00;;;;;;;;;;5060425;28;20239;-74
2023/06/22 08:33:28;;;;;;;0.00;0.00;;;;;;;;;;5073055;28;20223;-74
2023/06/22 08:35:54;;;;;;;0.10;0.10;;;;;;;;;;5059812;28;20279;-74
2023/06/22 08:38:20;;;;;;;0.00;0.00;;;;;;;;;;5073806;28;20271;-74
2023/06/22 08:40:48;;;;;;;0.00;0.00;;;;;;;;;;5058807;28;20239;-73
2023/06/22 08:43:15;;;;;;;0.08;0.08;;;;;;;;;;5074576;28;20216;-73
2023/06/22 08:45:41;;;;;;;0.00;0.00;;;;;;;;;;5058265;28;20243;-73
2023/06/22 08:48:08;;;;;;;0.00;0.00;;;;;;;;;;5074967;28;20220;-74
2023/06/22 08:50:34;;;;;;;0.00;0.00;;;;;;;;;;5057270;28;20262;-75
2023/06/22 08:53:00;;;;;;;0.00;0.00;;;;;;;;;;5076125;28;20267;-74
2023/06/22 08:55:27;;;;;;;0.00;0.00;;;;;;;;;;5056299;28;20242;-76
2023/06/22 08:57:54;;;;;;;0.10;0.10;;;;;;;;;;5076766;28;20264;-76
2023/06/22 09:00:21;;;;;;;0.00;0.00;;;;;;;;;;5055087;28;20262;-76
2023/06/22 09:02:48;;;;;;;0.00;0.00;;;;;;;;;;5077317;28;20200;-76
2023/06/22 09:05:14;;;;;;;0.00;0.00;;;;;;;;;;5053983;28;20468;-74
2023/06/22 09:07:41;;;;;;;0.00;0.00;;;;;;;;;;5078630;28;20234;-76
2023/06/22 09:10:08;;;;;;;0.00;0.00;;;;;;;;;;5063407;28;20204;-74
2023/06/22 09:12:36;;;;;;;0.00;0.00;;;;;;;;;;5078590;28;20291;-74
2023/06/22 09:15:06;;;;;;;0.00;0.00;;;;;;;;;;5063449;28;20291;-74
2023/06/22 09:17:33;;;;;;;0.00;0.00;;;;;;;;;;5052340;28;20424;-74
2023/06/22 09:20:00;;;;;;;0.10;0.10;;;;;;;;;;5063636;28;20442;-75
2023/06/22 09:22:28;;;;;;;0.00;0.00;;;;;;;;;;5069121;28;20238;-74
2023/06/22 09:24:55;;;;;;;0.00;0.00;;;;;;;;;;5063233;28;20200;-74
2023/06/22 09:27:22;;;;;;;0.00;0.00;;;;;;;;;;5069075;28;20246;-75
2023/06/22 09:29:48;;;;;;;0.00;0.00;;;;;;;;;;5063445;28;20249;-76
2023/06/22 09:32:16;;;;;;;0.00;0.00;;;;;;;;;;5069046;28;20298;-75
2023/06/22 09:34:42;;;;;;;0.00;0.00;;;;;;;;;;5063260;28;20236;-75
2023/06/22 09:37:09;;;;;;;0.10;0.10;;;;;;;;;;5068874;28;20439;-74
2023/06/22 09:39:36;;;;;;;0.00;0.00;;;;;;;;;;5063265;28;20235;-74
2023/06/22 09:42:02;;;;;;;0.00;0.00;;;;;;;;;;5068164;28;20262;-75
2023/06/22 09:44:29;;;;;;;0.00;0.00;;;;;;;;;;5064039;28;20199;-74
2023/06/22 09:46:55;;;;;;;0.00;0.00;;;;;;;;;;5066929;28;20266;-75
2023/06/22 09:49:23;;;;;;;0.00;0.00;;;;;;;;;;5064662;28;20235;-75
2023/06/22 09:51:50;;;;;;;0.00;0.00;;;;;;;;;;5066132;28;20573;-75
2023/06/22 09:54:17;;;;;;;0.00;0.00;;;;;;;;;;5064967;28;20227;-76
2023/06/22 09:56:43;;;;;;;0.00;0.00;;;;;;;;;;5065540;28;20239;-76
2023/06/22 09:59:09;;;;;;;0.00;0.00;;;;;;;;;;5066432;28;20224;-75
2023/06/22 10:01:36;;;;;;;0.10;0.10;;;;;;;;;;5064535;28;20314;-76
2023/06/22 10:04:03;;;;;;;0.00;0.00;;;;;;;;;;5067406;28;20497;-75
2023/06/22 10:06:30;;;;;;;0.00;0.00;;;;;;;;;;5063593;28;20245;-74
2023/06/22 10:08:57;;;;;;;0.00;0.00;;;;;;;;;;5067763;28;20271;-73
2023/06/22 10:11:28;;;;;;;0.00;0.00;;;;;;;;;;5062824;28;20269;-73
2023/06/22 10:13:55;;;;;;;0.00;0.00;;;;;;;;;;5068101;28;20393;-74
2023/06/22 10:16:21;;;;;;;0.00;0.00;;;;;;;;;;5065819;28;20315;-73
2023/06/22 10:18:48;;;;;;;0.00;0.00;;;;;;;;;;5072510;28;20236;-74
2023/06/22 10:21:17;;;;;;;0.20;0.20;;;;;;;;;;5065170;28;20304;-74
2023/06/22 10:23:44;;;;;;;0.10;0.10;;;;;;;;;;5073311;28;20450;-74
2023/06/22 10:26:13;;;;;;;0.00;0.00;;;;;;;;;;5064795;28;20315;-74
2023/06/22 10:28:39;;;;;;;0.00;0.00;;;;;;;;;;5073773;28;20267;-74
2023/06/22 10:31:05;;;;;;;0.00;0.00;;;;;;;;;;5064010;28;20240;-74
2023/06/22 10:33:32;;;;;;;0.00;0.00;;;;;;;;;;5074611;28;20236;-74
2023/06/22 10:35:58;;;;;;;0.00;0.00;;;;;;;;;;5062545;28;20250;-76
2023/06/22 10:38:24;;;;;;;0.00;0.00;;;;;;;;;;5075590;28;20296;-73
2023/06/22 10:40:52;;;;;;;0.77;0.77;;;;;;;;;;5061763;28;20239;-74
2023/06/22 10:43:19;;;;;;;0.00;0.00;;;;;;;;;;5076311;28;20274;-74
2023/06/22 10:45:46;;;;;;;0.00;0.00;;;;;;;;;;5061070;28;20246;-81
2023/06/22 10:48:13;;;;;;;0.00;0.00;;;;;;;;;;5076598;28;20243;-75
2023/06/22 10:50:40;;;;;;;0.00;0.00;;;;;;;;;;5060349;28;20239;-75
2023/06/22 10:53:06;;;;;;;0.00;0.00;;;;;;;;;;5077725;28;20451;-74
2023/06/22 10:55:32;;;;;;;0.00;0.00;;;;;;;;;;5059312;28;20534;-76
2023/06/22 10:58:00;;;;;;;0.00;0.00;;;;;;;;;;5078726;28;20192;-75
2023/06/22 11:00:30;;;;;;;0.00;0.00;;;;;;;;;;5058751;28;20410;-74
2023/06/22 11:02:58;;;;;;;0.00;0.00;;;;;;;;;;5078939;28;20292;-76
2023/06/22 11:05:24;;;;;;;0.00;0.00;;;;;;;;;;5057717;28;20211;-75
2023/06/22 11:07:50;;;;;;;0.90;0.90;;;;;;;;;;5079200;28;20255;-78
2023/06/22 11:10:17;;;;;;;0.00;0.00;;;;;;;;;;5056940;28;20205;-76
2023/06/22 11:12:43;;;;;;;0.00;0.00;;;;;;;;;;5080185;28;20223;-78
2023/06/22 11:15:11;;;;;;;0.00;0.00;;;;;;;;;;5055776;28;20255;-80
2023/06/22 11:17:37;;;;;;;0.00;0.00;;;;;;;;;;5080988;28;20504;-77
2023/06/22 11:20:10;;;;;;;0.00;0.00;;;;;;;;;;5065773;28;20449;-73
2023/06/22 11:22:36;;;;;;;0.10;0.10;;;;;;;;;;5054286;28;20203;-76
2023/06/22 11:25:03;;;;;;;0.00;0.00;;;;;;;;;;5065376;28;20271;-77
2023/06/22 11:27:29;;;;;;;0.00;0.00;;;;;;;;;;5070281;28;20307;-77
2023/06/22 11:29:56;;;;;;;0.00;0.00;;;;;;;;;;5065232;28;20204;-75
2023/06/22 11:32:23;;;;;;;0.00;0.00;;;;;;;;;;5070894;28;20265;-77
2023/06/22 11:34:50;;;;;;;0.10;0.10;;;;;;;;;;5065127;28;20262;-77
2023/06/22 11:37:16;;;;;;;0.00;0.00;;;;;;;;;;5070873;28;20250;-78
2023/06/22 11:39:43;;;;;;;0.00;0.00;;;;;;;;;;5065156;28;20235;-77
2023/06/22 11:42:09;;;;;;;0.00;0.00;;;;;;;;;;5070808;28;20258;-76
2023/06/22 11:44:36;;;;;;;0.00;0.00;;;;;;;;;;5065064;28;20200;-77
2023/06/22 11:47:04;;;;;;;0.00;0.00;;;;;;;;;;5069694;28;20243;-76
2023/06/22 11:49:32;;;;;;;0.00;0.00;;;;;;;;;;5065763;28;20204;-78
2023/06/22 11:51:58;;;;;;;0.00;0.00;;;;;;;;;;5069328;28;20239;-78
2023/06/22 11:54:24;;;;;;;0.00;0.00;;;;;;;;;;5066019;28;20251;-77
2023/06/22 11:56:51;;;;;;;0.00;0.00;;;;;;;;;;5068237;28;20247;-76
2023/06/22 11:59:17;;;;;;;0.00;0.00;;;;;;;;;;5067248;28;20251;-76
2023/06/22 12:01:44;;;;;;;0.00;0.00;;;;;;;;;;5066473;28;20239;-78
2023/06/22 12:04:11;;;;;;;0.00;0.00;;;;;;;;;;5068545;28;20270;-78
2023/06/22 12:06:41;;;;;;;0.10;0.10;;;;;;;;;;5066086;28;20282;-77
2023/06/22 12:09:08;;;;;;;0.00;0.00;;;;;;;;;;5068202;28;20192;-77
2023/06/22 12:11:34;;;;;;;0.25;0.25;;;;;;;;;;5065537;28;20235;-75
2023/06/22 12:14:02;;;;;;;0.03;0.03;;;;;;;;;;5068585;28;20238;-74
2023/06/22 12:16:28;;;;;;;0.00;0.00;;;;;;;;;;5064805;28;20314;-73
2023/06/22 12:18:54;;;;;;;0.00;0.00;;;;;;;;;;5069821;28;20203;-76
2023/06/22 12:21:21;;;;;;;0.00;0.00;;;;;;;;;;5062363;28;20250;-76
2023/06/22 12:23:49;;;;;;;0.00;0.00;;;;;;;;;;5070320;28;20271;-76
2023/06/22 12:26:15;;;;;;;0.00;0.00;;;;;;;;;;5062765;28;20241;-76
2023/06/22 12:28:42;;;;;;;0.00;0.00;;;;;;;;;;5071380;28;20275;-77
2023/06/22 12:31:08;;;;;;;0.00;0.00;;;;;;;;;;5061928;28;20251;-77
2023/06/22 12:33:35;;;;;;;0.00;0.00;;;;;;;;;;5072187;28;20226;-77
2023/06/22 12:36:01;;;;;;;0.05;0.05;;;;;;;;;;5060820;28;20255;-76
2023/06/22 12:38:27;;;;;;;0.00;0.00;;;;;;;;;;5073008;28;20204;-76
2023/06/22 12:40:55;;;;;;;0.00;0.00;;;;;;;;;;5059911;28;20263;-77
2023/06/22 12:43:21;;;;;;;0.40;0.40;;;;;;;;;;5073635;28;20208;-77
2023/06/22 12:45:48;;;;;;;5.45;2.80;;;;;;;;;;5058578;28;20239;-77
2023/06/22 12:48:14;;;;;;;0.00;0.00;;;;;;;;;;5074705;28;20219;-76
2023/06/22 12:50:41;;;;;;;0.00;0.00;;;;;;;;;;5054322;28;20298;-76
2023/06/22 12:53:07;;;;;;;0.00;0.00;;;;;;;;;;5075328;28;20275;-76
2023/06/22 12:55:33;;;;;;;0.00;0.00;;;;;;;;;;5056855;28;20246;-76
2023/06/22 12:58:01;;;;;;;0.00;0.00;;;;;;;;;;5075901;28;20232;-76
2023/06/22 13:00:30;;;;;;;0.10;0.10;;;;;;;;;;5056049;28;20251;-74
2023/06/22 13:02:59;;;;;;;0.08;0.08;;;;;;;;;;5076064;28;20208;-73
2023/06/22 13:05:28;;;;;;;0.00;0.00;;;;;;;;;;5055942;28;20283;-74
2023/06/22 13:07:55;;;;;;;0.00;0.00;;;;;;;;;;5076422;28;20246;-73
2023/06/22 13:10:21;;;;;;;0.03;0.03;;;;;;;;;;5055007;28;20232;-73
2023/06/22 13:12:48;;;;;;;0.10;0.10;;;;;;;;;;5077176;28;20219;-74
2023/06/22 13:15:16;;;;;;;0.00;0.00;;;;;;;;;;5054091;28;20524;-73
2023/06/22 13:17:42;;;;;;;0.00;0.00;;;;;;;;;;5078216;28;20250;-74
2023/06/22 13:20:09;;;;;;;0.10;0.10;;;;;;;;;;5060641;28;20203;-73
2023/06/22 13:22:39;;;;;;;0.00;0.00;;;;;;;;;;5079028;28;20512;-74
2023/06/22 13:25:07;;;;;;;0.10;0.10;;;;;;;;;;5063729;28;20220;-74
2023/06/22 13:27:33;;;;;;;0.00;0.00;;;;;;;;;;5051890;28;20215;-74
2023/06/22 13:30:03;;;;;;;0.00;0.00;;;;;;;;;;5063664;28;20580;-74
2023/06/22 13:32:31;;;;;;;0.00;0.00;;;;;;;;;;5068769;28;20259;-74
2023/06/22 13:34:57;;;;;;;0.00;0.00;;;;;;;;;;5063160;28;20607;-74
2023/06/22 13:37:24;;;;;;;0.00;0.00;;;;;;;;;;5068420;28;20262;-74
2023/06/22 13:39:51;;;;;;;0.00;0.00;;;;;;;;;;5062968;28;20208;-74
2023/06/22 13:42:18;;;;;;;0.00;0.00;;;;;;;;;;5068712;28;20239;-75
2023/06/22 13:44:44;;;;;;;0.00;0.00;;;;;;;;;;5063183;28;20235;-77
2023/06/22 13:47:11;;;;;;;0.00;0.00;;;;;;;;;;5068341;28;20253;-76
2023/06/22 13:49:45;;;;;;;0.00;0.00;;;;;;;;;;5064023;28;20407;-76
2023/06/22 13:52:12;;;;;;;0.00;0.00;;;;;;;;;;5072407;28;20458;-76
2023/06/22 13:54:39;;;;;;;0.00;0.00;;;;;;;;;;5067306;28;20228;-76
2023/06/22 13:57:06;;;;;;;0.00;0.00;;;;;;;;;;5071980;28;20269;-76
2023/06/22 13:59:32;;;;;;;0.00;0.00;;;;;;;;;;5067277;28;20228;-77
2023/06/22 14:01:59;;;;;;;0.00;0.00;;;;;;;;;;5070932;28;20250;-76
2023/06/22 14:04:28;;;;;;;3.53;3.10;;;;;;;;;;5068024;28;20220;-76
2023/06/22 14:06:56;;;;;;;0.10;0.10;;;;;;;;;;5070488;28;20592;-76
2023/06/22 14:09:23;;;;;;;0.00;0.00;;;;;;;;;;5068405;28;20204;-76
2023/06/22 14:11:49;;;;;;;0.00;0.00;;;;;;;;;;5069505;28;20243;-76
2023/06/22 14:14:16;;;;;;;0.00;0.00;;;;;;;;;;5068568;28;20322;-76
2023/06/22 14:16:42;;;;;;;0.00;0.00;;;;;;;;;;5068560;28;20243;-76
2023/06/22 14:19:16;;;;;;;0.00;0.00;;;;;;;;;;5069638;28;20262;-76
2023/06/22 14:21:45;;;;;;;0.00;0.00;;;;;;;;;;5068303;28;20578;-77
2023/06/22 14:24:13;;;;;;;0.00;0.00;;;;;;;;;;5069728;28;20240;-78
2023/06/22 14:26:41;;;;;;;0.00;0.00;;;;;;;;;;5068074;28;20247;-78
2023/06/22 14:29:08;;;;;;;0.00;0.00;;;;;;;;;;5069571;28;20215;-77
2023/06/22 14:31:34;;;;;;;0.00;0.00;;;;;;;;;;5067326;28;20311;-78
2023/06/22 14:34:02;;;;;;;0.00;0.00;;;;;;;;;;5070332;28;20247;-78
2023/06/22 14:36:31;;;;;;;0.00;0.00;;;;;;;;;;5066333;28;20250;-78
2023/06/22 14:38:57;;;;;;;0.00;0.00;;;;;;;;;;5070809;28;20409;-76
2023/06/22 14:41:25;;;;;;;0.00;0.00;;;;;;;;;;5066049;28;20254;-76
2023/06/22 14:43:52;;;;;;;0.00;0.00;;;;;;;;;;5071379;28;20204;-77
2023/06/22 14:46:19;;;;;;;0.00;0.00;;;;;;;;;;5065021;28;20302;-77